Bega, Australia
Current Conditions -  °F | °C
As of 2:00 AM on Friday 24 Oct 2014 (Local Time) from YMER Reporting Station
Scattered Clouds Scattered Clouds  
Wind Chill: 61°   Ceiling: Unl
Heat Index: 61°   Visibility: 4mi
Dew Point: 61°   Wind: 2mph
Humidity: 100%   Direction: 300°WNW
Pressure: 30.09"   Gusts: NA
Location:  36.67°S, 149.84°E
Report Text: YMER 231500Z AUTO 30002KT 6000 // SCT027 16/16 Q1019
Loading
Personal Weather Stations






























Interactive Weather Map
Tropical Storm Tracking
New forecast layout! Learn more

10-Day Weather Forecast

Advertisements
Track Severe Weather on mobile